Terminal Aerodrome Forecast
Issued by NWS

Home | Current Version | Previous Version | Text Only | Print | Product List | Glossary On
Versions: 1 2 3 4 5 6 7 8 9 10 11 12 13 14 15
000
FTUS46 KSGX 280530
TAFTRM
TAF
KTRM 280530Z 2806/0106 VRB05KT 5SM -RA OVC060
      TEMPO 2806/2808 BKN020
     FM281000 VRB05KT 4SM BR SCT005
      TEMPO 2810/2814 1SM BR BKN005
     FM281500 33008KT P6SM SKC
     FM010200 VRB05KT P6SM SKC=

USA.gov is the U.S. government's official web portal to all federal, state and local government web resources and services.